sensor_id;sensor_type;location;lat;lon;timestamp;pressure;altitude;pressure_sealevel;temperature;humidity
26436;BME280;15351;52.408;16.826;2024-02-26T00:01:46;99858.21;;;6.38;74.22
26436;BME280;15351;52.408;16.826;2024-02-26T00:04:15;99858.88;;;6.37;74.19
26436;BME280;15351;52.408;16.826;2024-02-26T00:06:51;99858.21;;;6.35;74.07
26436;BME280;15351;52.408;16.826;2024-02-26T00:09:21;99855.02;;;6.30;73.96
26436;BME280;15351;52.408;16.826;2024-02-26T00:12:02;99863.55;;;6.27;73.83
26436;BME280;15351;52.408;16.826;2024-02-26T00:14:46;99866.51;;;6.23;73.78
26436;BME280;15351;52.408;16.826;2024-02-26T00:17:37;99868.84;;;6.20;73.76
26436;BME280;15351;52.408;16.826;2024-02-26T00:20:06;99866.83;;;6.15;74.00
26436;BME280;15351;52.408;16.826;2024-02-26T00:22:36;99873.41;;;6.12;74.34
26436;BME280;15351;52.408;16.826;2024-02-26T00:25:04;99859.62;;;6.11;74.81
26436;BME280;15351;52.408;16.826;2024-02-26T00:27:33;99862.43;;;6.13;75.18
26436;BME280;15351;52.408;16.826;2024-02-26T00:30:03;99860.66;;;6.15;75.32
26436;BME280;15351;52.408;16.826;2024-02-26T00:32:46;99867.19;;;6.14;75.34
26436;BME280;15351;52.408;16.826;2024-02-26T00:35:12;99868.60;;;6.14;75.38
26436;BME280;15351;52.408;16.826;2024-02-26T00:37:55;99865.14;;;6.14;75.55
26436;BME280;15351;52.408;16.826;2024-02-26T00:40:28;99863.77;;;6.12;75.40
26436;BME280;15351;52.408;16.826;2024-02-26T00:42:56;99862.39;;;6.10;75.33
26436;BME280;15351;52.408;16.826;2024-02-26T00:45:26;99858.05;;;6.09;75.20
26436;BME280;15351;52.408;16.826;2024-02-26T00:47:53;99854.86;;;6.05;74.94
26436;BME280;15351;52.408;16.826;2024-02-26T00:50:27;99854.58;;;6.00;74.97
26436;BME280;15351;52.408;16.826;2024-02-26T00:52:56;99857.08;;;5.96;74.85
26436;BME280;15351;52.408;16.826;2024-02-26T00:55:24;99863.64;;;5.95;74.94
26436;BME280;15351;52.408;16.826;2024-02-26T00:57:51;99864.38;;;5.94;74.75
26436;BME280;15351;52.408;16.826;2024-02-26T01:00:21;99865.27;;;5.92;74.69
26436;BME280;15351;52.408;16.826;2024-02-26T01:02:47;99865.25;;;5.89;74.41
26436;BME280;15351;52.408;16.826;2024-02-26T01:05:14;99866.15;;;5.86;74.16
26436;BME280;15351;52.408;16.826;2024-02-26T01:07:46;99862.46;;;5.82;74.24
26436;BME280;15351;52.408;16.826;2024-02-26T01:10:13;99859.88;;;5.77;74.00
26436;BME280;15351;52.408;16.826;2024-02-26T01:12:40;99862.02;;;5.71;74.16
26436;BME280;15351;52.408;16.826;2024-02-26T01:15:08;99863.20;;;5.67;74.08
26436;BME280;15351;52.408;16.826;2024-02-26T01:17:44;99861.38;;;5.65;73.97
26436;BME280;15351;52.408;16.826;2024-02-26T01:20:11;99855.17;;;5.60;74.03
26436;BME280;15351;52.408;16.826;2024-02-26T01:22:38;99858.79;;;5.62;74.09
26436;BME280;15351;52.408;16.826;2024-02-26T01:25:09;99863.05;;;5.59;74.05
26436;BME280;15351;52.408;16.826;2024-02-26T01:27:40;99860.46;;;5.55;73.92
26436;BME280;15351;52.408;16.826;2024-02-26T01:30:10;99862.78;;;5.52;73.86
26436;BME280;15351;52.408;16.826;2024-02-26T01:32:41;99861.06;;;5.48;73.66
26436;BME280;15351;52.408;16.826;2024-02-26T01:35:10;99862.29;;;5.45;73.55
26436;BME280;15351;52.408;16.826;2024-02-26T01:37:38;99861.30;;;5.41;73.39
26436;BME280;15351;52.408;16.826;2024-02-26T01:40:09;99859.85;;;5.38;73.25
26436;BME280;15351;52.408;16.826;2024-02-26T01:42:39;99858.00;;;5.35;73.28
26436;BME280;15351;52.408;16.826;2024-02-26T01:45:09;99856.10;;;5.31;73.28
26436;BME280;15351;52.408;16.826;2024-02-26T01:47:45;99853.83;;;5.29;73.44
26436;BME280;15351;52.408;16.826;2024-02-26T01:50:12;99853.58;;;5.25;73.49
26436;BME280;15351;52.408;16.826;2024-02-26T01:52:38;99852.55;;;5.23;73.53
26436;BME280;15351;52.408;16.826;2024-02-26T01:55:06;99854.88;;;5.21;73.65
26436;BME280;15351;52.408;16.826;2024-02-26T01:57:34;99859.42;;;5.20;73.63
26436;BME280;15351;52.408;16.826;2024-02-26T02:00:01;99856.64;;;5.18;73.66
26436;BME280;15351;52.408;16.826;2024-02-26T02:02:32;99858.77;;;5.16;73.83
26436;BME280;15351;52.408;16.826;2024-02-26T02:05:02;99857.89;;;5.14;74.01
26436;BME280;15351;52.408;16.826;2024-02-26T02:07:53;99859.55;;;5.12;74.25
26436;BME280;15351;52.408;16.826;2024-02-26T02:10:20;99863.32;;;5.12;74.41
26436;BME280;15351;52.408;16.826;2024-02-26T02:12:52;99863.95;;;5.11;74.39
26436;BME280;15351;52.408;16.826;2024-02-26T02:15:21;99866.31;;;5.10;74.35
26436;BME280;15351;52.408;16.826;2024-02-26T02:17:48;99862.16;;;5.08;74.37
26436;BME280;15351;52.408;16.826;2024-02-26T02:20:16;99864.90;;;5.07;74.38
26436;BME280;15351;52.408;16.826;2024-02-26T02:22:46;99865.09;;;5.06;74.24
26436;BME280;15351;52.408;16.826;2024-02-26T02:25:14;99864.11;;;5.03;74.50
26436;BME280;15351;52.408;16.826;2024-02-26T02:27:42;99858.98;;;5.01;74.61
26436;BME280;15351;52.408;16.826;2024-02-26T02:30:12;99854.00;;;5.01;74.78
26436;BME280;15351;52.408;16.826;2024-02-26T02:32:43;99852.62;;;5.01;75.07
26436;BME280;15351;52.408;16.826;2024-02-26T02:35:13;99853.09;;;4.99;75.08
26436;BME280;15351;52.408;16.826;2024-02-26T02:37:40;99854.67;;;4.98;74.98
26436;BME280;15351;52.408;16.826;2024-02-26T02:40:07;99854.03;;;4.95;74.98
26436;BME280;15351;52.408;16.826;2024-02-26T02:42:34;99853.45;;;4.94;75.03
26436;BME280;15351;52.408;16.826;2024-02-26T02:45:01;99852.75;;;4.92;75.00
26436;BME280;15351;52.408;16.826;2024-02-26T02:47:28;99851.84;;;4.91;74.98
26436;BME280;15351;52.408;16.826;2024-02-26T02:49:56;99848.80;;;4.91;75.17
26436;BME280;15351;52.408;16.826;2024-02-26T02:52:23;99848.52;;;4.92;75.18
26436;BME280;15351;52.408;16.826;2024-02-26T02:54:50;99843.39;;;4.92;75.33
26436;BME280;15351;52.408;16.826;2024-02-26T02:57:17;99840.67;;;4.90;75.70
26436;BME280;15351;52.408;16.826;2024-02-26T02:59:44;99837.15;;;4.88;76.12
26436;BME280;15351;52.408;16.826;2024-02-26T03:02:14;99832.70;;;4.86;76.25
26436;BME280;15351;52.408;16.826;2024-02-26T03:04:41;99831.38;;;4.87;76.65
26436;BME280;15351;52.408;16.826;2024-02-26T03:07:10;99825.17;;;4.89;76.80
26436;BME280;15351;52.408;16.826;2024-02-26T03:09:40;99823.96;;;4.88;76.88
26436;BME280;15351;52.408;16.826;2024-02-26T03:12:10;99825.00;;;4.88;76.82
26436;BME280;15351;52.408;16.826;2024-02-26T03:14:46;99828.05;;;4.90;76.91
26436;BME280;15351;52.408;16.826;2024-02-26T03:17:18;99829.09;;;4.92;76.77
26436;BME280;15351;52.408;16.826;2024-02-26T03:19:54;99833.20;;;4.92;76.60
26436;BME280;15351;52.408;16.826;2024-02-26T03:22:22;99830.84;;;4.92;76.52
26436;BME280;15351;52.408;16.826;2024-02-26T03:24:51;99835.30;;;4.92;76.42
26436;BME280;15351;52.408;16.826;2024-02-26T03:27:18;99835.61;;;4.93;76.29
26436;BME280;15351;52.408;16.826;2024-02-26T03:29:55;99831.27;;;4.92;76.24
26436;BME280;15351;52.408;16.826;2024-02-26T03:32:24;99830.64;;;4.92;76.15
26436;BME280;15351;52.408;16.826;2024-02-26T03:34:59;99830.50;;;4.92;76.16
26436;BME280;15351;52.408;16.826;2024-02-26T03:37:32;99831.97;;;4.92;76.22
26436;BME280;15351;52.408;16.826;2024-02-26T03:40:00;99832.87;;;4.92;76.11
26436;BME280;15351;52.408;16.826;2024-02-26T03:42:28;99831.15;;;4.91;76.10
26436;BME280;15351;52.408;16.826;2024-02-26T03:45:02;99830.88;;;4.88;76.07
26436;BME280;15351;52.408;16.826;2024-02-26T03:47:32;99831.77;;;4.87;76.08
26436;BME280;15351;52.408;16.826;2024-02-26T03:49:59;99832.87;;;4.87;75.96
26436;BME280;15351;52.408;16.826;2024-02-26T03:52:26;99834.65;;;4.85;76.21
26436;BME280;15351;52.408;16.826;2024-02-26T03:54:53;99842.16;;;4.83;76.41
26436;BME280;15351;52.408;16.826;2024-02-26T03:57:22;99841.52;;;4.80;76.54
26436;BME280;15351;52.408;16.826;2024-02-26T03:59:49;99842.68;;;4.80;76.67
26436;BME280;15351;52.408;16.826;2024-02-26T04:02:19;99845.58;;;4.79;76.83
26436;BME280;15351;52.408;16.826;2024-02-26T04:04:57;99843.09;;;4.77;76.82
26436;BME280;15351;52.408;16.826;2024-02-26T04:07:26;99849.38;;;4.79;76.92
26436;BME280;15351;52.408;16.826;2024-02-26T04:09:53;99848.20;;;4.78;76.88
26436;BME280;15351;52.408;16.826;2024-02-26T04:12:26;99847.00;;;4.77;76.86
26436;BME280;15351;52.408;16.826;2024-02-26T04:14:55;99849.97;;;4.76;76.93
26436;BME280;15351;52.408;16.826;2024-02-26T04:17:22;99847.24;;;4.73;76.93
26436;BME280;15351;52.408;16.826;2024-02-26T04:19:49;99848.79;;;4.70;76.79
26436;BME280;15351;52.408;16.826;2024-02-26T04:22:16;99852.21;;;4.68;76.64
26436;BME280;15351;52.408;16.826;2024-02-26T04:24:43;99849.69;;;4.65;76.64
26436;BME280;15351;52.408;16.826;2024-02-26T04:27:10;99855.02;;;4.63;76.48
26436;BME280;15351;52.408;16.826;2024-02-26T04:29:37;99857.30;;;4.61;76.38
26436;BME280;15351;52.408;16.826;2024-02-26T04:32:04;99858.83;;;4.60;76.37
26436;BME280;15351;52.408;16.826;2024-02-26T04:34:35;99856.79;;;4.61;76.33
26436;BME280;15351;52.408;16.826;2024-02-26T04:37:06;99857.25;;;4.60;76.38
26436;BME280;15351;52.408;16.826;2024-02-26T04:39:33;99858.27;;;4.58;76.27
26436;BME280;15351;52.408;16.826;2024-02-26T04:42:00;99852.81;;;4.56;76.21
26436;BME280;15351;52.408;16.826;2024-02-26T04:44:30;99851.77;;;4.54;76.13
26436;BME280;15351;52.408;16.826;2024-02-26T04:46:58;99853.50;;;4.53;76.19
26436;BME280;15351;52.408;16.826;2024-02-26T04:49:28;99855.25;;;4.51;76.00
26436;BME280;15351;52.408;16.826;2024-02-26T04:52:01;99851.93;;;4.49;76.05
26436;BME280;15351;52.408;16.826;2024-02-26T04:54:28;99855.42;;;4.48;76.13
26436;BME280;15351;52.408;16.826;2024-02-26T04:56:54;99854.11;;;4.47;76.01
26436;BME280;15351;52.408;16.826;2024-02-26T04:59:24;99854.75;;;4.47;75.95
26436;BME280;15351;52.408;16.826;2024-02-26T05:01:54;99854.08;;;4.47;76.06
26436;BME280;15351;52.408;16.826;2024-02-26T05:04:21;99855.68;;;4.47;76.05
26436;BME280;15351;52.408;16.826;2024-02-26T05:06:48;99860.58;;;4.46;76.05
26436;BME280;15351;52.408;16.826;2024-02-26T05:09:21;99862.10;;;4.45;75.98
26436;BME280;15351;52.408;16.826;2024-02-26T05:11:48;99862.08;;;4.46;75.87
26436;BME280;15351;52.408;16.826;2024-02-26T05:14:15;99854.10;;;4.45;75.87
26436;BME280;15351;52.408;16.826;2024-02-26T05:16:42;99853.26;;;4.45;75.89
26436;BME280;15351;52.408;16.826;2024-02-26T05:19:09;99849.92;;;4.44;75.96
26436;BME280;15351;52.408;16.826;2024-02-26T05:21:35;99847.25;;;4.44;76.00
26436;BME280;15351;52.408;16.826;2024-02-26T05:24:02;99856.22;;;4.44;75.92
26436;BME280;15351;52.408;16.826;2024-02-26T05:26:29;99862.78;;;4.42;75.81
26436;BME280;15351;52.408;16.826;2024-02-26T05:29:07;99869.23;;;4.40;75.78
26436;BME280;15351;52.408;16.826;2024-02-26T05:31:34;99870.02;;;4.39;75.80
26436;BME280;15351;52.408;16.826;2024-02-26T05:34:01;99879.30;;;4.39;75.74
26436;BME280;15351;52.408;16.826;2024-02-26T05:36:28;99879.81;;;4.37;75.65
26436;BME280;15351;52.408;16.826;2024-02-26T05:39:03;99877.64;;;4.36;75.85
26436;BME280;15351;52.408;16.826;2024-02-26T05:41:30;99877.65;;;4.36;75.68
26436;BME280;15351;52.408;16.826;2024-02-26T05:43:58;99886.69;;;4.36;75.77
26436;BME280;15351;52.408;16.826;2024-02-26T05:46:25;99891.72;;;4.36;75.50
26436;BME280;15351;52.408;16.826;2024-02-26T05:48:55;99903.08;;;4.33;75.61
26436;BME280;15351;52.408;16.826;2024-02-26T05:51:23;99902.20;;;4.29;75.59
26436;BME280;15351;52.408;16.826;2024-02-26T05:53:50;99898.08;;;4.27;75.53
26436;BME280;15351;52.408;16.826;2024-02-26T05:56:29;99893.91;;;4.27;75.46
26436;BME280;15351;52.408;16.826;2024-02-26T05:58:57;99895.25;;;4.25;75.31
26436;BME280;15351;52.408;16.826;2024-02-26T06:01:27;99895.46;;;4.25;75.31
26436;BME280;15351;52.408;16.826;2024-02-26T06:03:59;99891.20;;;4.23;75.32
26436;BME280;15351;52.408;16.826;2024-02-26T06:06:26;99889.80;;;4.23;75.27
26436;BME280;15351;52.408;16.826;2024-02-26T06:08:53;99889.30;;;4.23;75.41
26436;BME280;15351;52.408;16.826;2024-02-26T06:11:19;99889.31;;;4.24;75.37
26436;BME280;15351;52.408;16.826;2024-02-26T06:13:49;99890.96;;;4.26;75.42
26436;BME280;15351;52.408;16.826;2024-02-26T06:16:16;99892.54;;;4.26;75.50
26436;BME280;15351;52.408;16.826;2024-02-26T06:18:42;99890.16;;;4.26;75.48
26436;BME280;15351;52.408;16.826;2024-02-26T06:21:27;99891.00;;;4.27;75.50
26436;BME280;15351;52.408;16.826;2024-02-26T06:24:04;99889.38;;;4.31;75.69
26436;BME280;15351;52.408;16.826;2024-02-26T06:26:31;99890.73;;;4.33;75.74
26436;BME280;15351;52.408;16.826;2024-02-26T06:28:59;99888.64;;;4.35;75.88
26436;BME280;15351;52.408;16.826;2024-02-26T06:31:29;99894.77;;;4.37;75.77
26436;BME280;15351;52.408;16.826;2024-02-26T06:33:56;99896.49;;;4.40;75.93
26436;BME280;15351;52.408;16.826;2024-02-26T06:36:23;99897.27;;;4.43;76.08
26436;BME280;15351;52.408;16.826;2024-02-26T06:38:50;99896.52;;;4.45;76.23
26436;BME280;15351;52.408;16.826;2024-02-26T06:41:18;99894.44;;;4.47;76.32
26436;BME280;15351;52.408;16.826;2024-02-26T06:43:54;99900.30;;;4.51;76.56
26436;BME280;15351;52.408;16.826;2024-02-26T06:46:22;99902.09;;;4.55;76.72
26436;BME280;15351;52.408;16.826;2024-02-26T06:48:49;99897.55;;;4.57;76.93
26436;BME280;15351;52.408;16.826;2024-02-26T06:51:18;99901.36;;;4.63;77.13
26436;BME280;15351;52.408;16.826;2024-02-26T06:53:54;99904.35;;;4.69;77.24
26436;BME280;15351;52.408;16.826;2024-02-26T06:56:27;99905.94;;;4.74;77.46
26436;BME280;15351;52.408;16.826;2024-02-26T06:58:59;99911.87;;;4.81;77.71
26436;BME280;15351;52.408;16.826;2024-02-26T07:01:35;99912.48;;;4.87;77.93
26436;BME280;15351;52.408;16.826;2024-02-26T07:04:02;99912.94;;;4.94;78.13
26436;BME280;15351;52.408;16.826;2024-02-26T07:06:39;99908.06;;;5.02;78.38
26436;BME280;15351;52.408;16.826;2024-02-26T07:09:17;99908.23;;;5.08;78.54
26436;BME280;15351;52.408;16.826;2024-02-26T07:11:57;99909.73;;;5.16;78.77
26436;BME280;15351;52.408;16.826;2024-02-26T07:14:24;99908.48;;;5.23;78.98
26436;BME280;15351;52.408;16.826;2024-02-26T07:16:51;99906.77;;;5.30;79.11
26436;BME280;15351;52.408;16.826;2024-02-26T07:19:27;99902.94;;;5.38;79.47
26436;BME280;15351;52.408;16.826;2024-02-26T07:21:54;99905.48;;;5.45;79.63
26436;BME280;15351;52.408;16.826;2024-02-26T07:24:22;99908.69;;;5.51;79.64
26436;BME280;15351;52.408;16.826;2024-02-26T07:26:54;99902.13;;;5.57;79.92
26436;BME280;15351;52.408;16.826;2024-02-26T07:29:27;99906.86;;;5.63;79.86
26436;BME280;15351;52.408;16.826;2024-02-26T07:31:54;99904.52;;;5.71;80.10
26436;BME280;15351;52.408;16.826;2024-02-26T07:34:21;99908.34;;;5.76;80.12
26436;BME280;15351;52.408;16.826;2024-02-26T07:36:57;99903.04;;;5.83;80.35
26436;BME280;15351;52.408;16.826;2024-02-26T07:39:24;99896.91;;;5.90;80.51
26436;BME280;15351;52.408;16.826;2024-02-26T07:41:52;99894.37;;;5.97;80.67
26436;BME280;15351;52.408;16.826;2024-02-26T07:44:19;99890.25;;;6.03;80.80
26436;BME280;15351;52.408;16.826;2024-02-26T07:46:46;99890.09;;;6.11;81.18
26436;BME280;15351;52.408;16.826;2024-02-26T07:49:13;99896.23;;;6.21;81.40
26436;BME280;15351;52.408;16.826;2024-02-26T07:51:40;99892.94;;;6.29;81.58
26436;BME280;15351;52.408;16.826;2024-02-26T07:54:07;99897.13;;;6.38;81.83
26436;BME280;15351;52.408;16.826;2024-02-26T07:56:34;99900.24;;;6.47;82.04
26436;BME280;15351;52.408;16.826;2024-02-26T07:59:01;99911.25;;;6.57;82.27
26436;BME280;15351;52.408;16.826;2024-02-26T08:01:31;99917.27;;;6.66;82.49
26436;BME280;15351;52.408;16.826;2024-02-26T08:03:58;99919.55;;;6.76;82.62
26436;BME280;15351;52.408;16.826;2024-02-26T08:06:25;99923.85;;;6.87;82.77
26436;BME280;15351;52.408;16.826;2024-02-26T08:08:52;99924.11;;;6.99;82.90
26436;BME280;15351;52.408;16.826;2024-02-26T08:11:19;99924.55;;;7.53;83.78
26436;BME280;15351;52.408;16.826;2024-02-26T08:13:46;99910.70;;;9.48;84.44
26436;BME280;15351;52.408;16.826;2024-02-26T08:16:13;99902.83;;;11.72;81.42
26436;BME280;15351;52.408;16.826;2024-02-26T08:18:40;99889.39;;;13.79;76.74
26436;BME280;15351;52.408;16.826;2024-02-26T08:21:07;99880.64;;;15.60;72.07
26436;BME280;15351;52.408;16.826;2024-02-26T08:23:35;99876.73;;;17.01;67.56
26436;BME280;15351;52.408;16.826;2024-02-26T08:26:02;99874.81;;;18.00;64.25
26436;BME280;15351;52.408;16.826;2024-02-26T08:28:30;99878.13;;;18.62;61.42
26436;BME280;15351;52.408;16.826;2024-02-26T08:30:57;99883.79;;;18.63;59.23
26436;BME280;15351;52.408;16.826;2024-02-26T08:33:34;99883.77;;;18.26;57.98
26436;BME280;15351;52.408;16.826;2024-02-26T08:36:05;99880.27;;;18.06;57.40
26436;BME280;15351;52.408;16.826;2024-02-26T08:38:32;99883.98;;;17.97;56.94
26436;BME280;15351;52.408;16.826;2024-02-26T08:41:01;99883.15;;;18.00;56.21
26436;BME280;15351;52.408;16.826;2024-02-26T08:43:29;99884.27;;;18.13;55.92
26436;BME280;15351;52.408;16.826;2024-02-26T08:45:56;99886.85;;;18.27;55.21
26436;BME280;15351;52.408;16.826;2024-02-26T08:48:23;99885.37;;;18.37;54.77
26436;BME280;15351;52.408;16.826;2024-02-26T08:50:50;99887.69;;;18.43;54.09
26436;BME280;15351;52.408;16.826;2024-02-26T08:53:18;99888.14;;;18.41;53.66
26436;BME280;15351;52.408;16.826;2024-02-26T08:55:44;99890.14;;;18.52;53.29
26436;BME280;15351;52.408;16.826;2024-02-26T08:58:11;99889.04;;;18.61;52.50
26436;BME280;15351;52.408;16.826;2024-02-26T09:00:38;99890.99;;;18.64;52.47
26436;BME280;15351;52.408;16.826;2024-02-26T09:03:05;99887.48;;;18.64;52.16
26436;BME280;15351;52.408;16.826;2024-02-26T09:05:33;99889.58;;;18.72;52.12
26436;BME280;15351;52.408;16.826;2024-02-26T09:08:02;99887.46;;;18.86;51.87
26436;BME280;15351;52.408;16.826;2024-02-26T09:10:34;99889.05;;;18.93;51.65
26436;BME280;15351;52.408;16.826;2024-02-26T09:13:01;99892.16;;;18.95;51.36
26436;BME280;15351;52.408;16.826;2024-02-26T09:15:38;99891.80;;;18.96;51.27
26436;BME280;15351;52.408;16.826;2024-02-26T09:18:04;99894.31;;;18.94;51.19
26436;BME280;15351;52.408;16.826;2024-02-26T09:20:31;99896.16;;;18.93;51.37
26436;BME280;15351;52.408;16.826;2024-02-26T09:23:08;99892.81;;;19.00;51.26
26436;BME280;15351;52.408;16.826;2024-02-26T09:25:36;99887.51;;;19.06;50.68
26436;BME280;15351;52.408;16.826;2024-02-26T09:28:03;99888.70;;;19.03;50.86
26436;BME280;15351;52.408;16.826;2024-02-26T09:30:52;99886.98;;;19.01;50.72
26436;BME280;15351;52.408;16.826;2024-02-26T09:33:17;99887.60;;;19.02;50.70
26436;BME280;15351;52.408;16.826;2024-02-26T09:35:47;99888.48;;;19.03;50.74
26436;BME280;15351;52.408;16.826;2024-02-26T09:38:14;99886.54;;;18.99;50.60
26436;BME280;15351;52.408;16.826;2024-02-26T09:40:44;99885.30;;;18.94;50.71
26436;BME280;15351;52.408;16.826;2024-02-26T09:43:40;99885.52;;;18.90;50.54
26436;BME280;15351;52.408;16.826;2024-02-26T09:46:10;99888.41;;;18.80;50.49
26436;BME280;15351;52.408;16.826;2024-02-26T09:48:37;99885.88;;;18.73;50.92
26436;BME280;15351;52.408;16.826;2024-02-26T09:51:04;99889.44;;;18.74;51.08
26436;BME280;15351;52.408;16.826;2024-02-26T09:53:37;99889.83;;;18.82;51.32
26436;BME280;15351;52.408;16.826;2024-02-26T09:56:12;99892.55;;;18.88;51.03
26436;BME280;15351;52.408;16.826;2024-02-26T09:58:41;99894.65;;;18.90;50.91
26436;BME280;15351;52.408;16.826;2024-02-26T10:01:13;99897.48;;;18.86;50.67
26436;BME280;15351;52.408;16.826;2024-02-26T10:03:47;99898.46;;;18.83;50.93
26436;BME280;15351;52.408;16.826;2024-02-26T10:06:14;99894.54;;;18.79;50.97
26436;BME280;15351;52.408;16.826;2024-02-26T10:08:41;99891.63;;;18.72;50.83
26436;BME280;15351;52.408;16.826;2024-02-26T10:11:09;99883.93;;;18.62;50.62
26436;BME280;15351;52.408;16.826;2024-02-26T10:13:36;99883.49;;;18.58;50.99
26436;BME280;15351;52.408;16.826;2024-02-26T10:16:06;99887.04;;;18.60;51.06
26436;BME280;15351;52.408;16.826;2024-02-26T10:18:44;99887.86;;;18.60;51.18
26436;BME280;15351;52.408;16.826;2024-02-26T10:21:21;99894.93;;;18.62;51.27
26436;BME280;15351;52.408;16.826;2024-02-26T10:23:48;99892.00;;;18.61;51.07
26436;BME280;15351;52.408;16.826;2024-02-26T10:26:15;99895.33;;;18.59;50.99
26436;BME280;15351;52.408;16.826;2024-02-26T10:28:43;99889.52;;;18.62;51.29
26436;BME280;15351;52.408;16.826;2024-02-26T10:31:30;99889.52;;;18.60;51.12
26436;BME280;15351;52.408;16.826;2024-02-26T10:33:59;99895.88;;;18.57;51.29
26436;BME280;15351;52.408;16.826;2024-02-26T10:36:26;99895.80;;;18.51;51.25
26436;BME280;15351;52.408;16.826;2024-02-26T10:38:55;99893.48;;;18.47;51.44
26436;BME280;15351;52.408;16.826;2024-02-26T10:41:22;99886.05;;;18.38;51.40
26436;BME280;15351;52.408;16.826;2024-02-26T10:43:54;99886.95;;;18.32;51.75
26436;BME280;15351;52.408;16.826;2024-02-26T10:46:21;99885.46;;;18.31;51.88
26436;BME280;15351;52.408;16.826;2024-02-26T10:48:57;99889.23;;;18.31;52.03
26436;BME280;15351;52.408;16.826;2024-02-26T10:54:08;99886.63;;;18.31;52.13
26436;BME280;15351;52.408;16.826;2024-02-26T10:56:37;99886.55;;;18.34;52.13
26436;BME280;15351;52.408;16.826;2024-02-26T10:59:08;99886.98;;;18.38;52.15
26436;BME280;15351;52.408;16.826;2024-02-26T11:01:36;99888.29;;;18.40;51.87
26436;BME280;15351;52.408;16.826;2024-02-26T11:04:08;99890.22;;;18.44;51.64
26436;BME280;15351;52.408;16.826;2024-02-26T11:06:36;99890.02;;;18.42;51.32
26436;BME280;15351;52.408;16.826;2024-02-26T11:09:03;99888.36;;;18.39;51.36
26436;BME280;15351;52.408;16.826;2024-02-26T11:11:32;99885.75;;;18.37;51.34
26436;BME280;15351;52.408;16.826;2024-02-26T11:14:42;99885.43;;;18.33;51.14
26436;BME280;15351;52.408;16.826;2024-02-26T11:17:16;99879.46;;;18.29;51.28
26436;BME280;15351;52.408;16.826;2024-02-26T11:19:44;99881.23;;;18.25;51.66
26436;BME280;15351;52.408;16.826;2024-02-26T11:22:11;99884.87;;;18.21;52.01
26436;BME280;15351;52.408;16.826;2024-02-26T11:24:38;99881.33;;;18.22;52.00
26436;BME280;15351;52.408;16.826;2024-02-26T11:27:07;99876.82;;;18.21;51.82
26436;BME280;15351;52.408;16.826;2024-02-26T11:29:38;99877.08;;;18.18;51.29
26436;BME280;15351;52.408;16.826;2024-02-26T11:32:06;99876.59;;;18.12;51.12
26436;BME280;15351;52.408;16.826;2024-02-26T11:34:33;99875.69;;;18.11;51.14
26436;BME280;15351;52.408;16.826;2024-02-26T11:37:09;99874.20;;;18.03;50.93
26436;BME280;15351;52.408;16.826;2024-02-26T11:39:36;99870.08;;;17.94;51.40
26436;BME280;15351;52.408;16.826;2024-02-26T11:42:09;99872.93;;;17.87;51.39
26436;BME280;15351;52.408;16.826;2024-02-26T11:44:37;99871.17;;;17.81;51.89
26436;BME280;15351;52.408;16.826;2024-02-26T11:47:10;99872.90;;;17.73;51.88
26436;BME280;15351;52.408;16.826;2024-02-26T11:49:38;99873.71;;;17.64;51.81
26436;BME280;15351;52.408;16.826;2024-02-26T11:52:06;99871.29;;;17.58;52.12
26436;BME280;15351;52.408;16.826;2024-02-26T11:54:38;99875.35;;;17.54;52.24
26436;BME280;15351;52.408;16.826;2024-02-26T11:57:19;99876.50;;;17.49;52.17
26436;BME280;15351;52.408;16.826;2024-02-26T11:59:46;99874.31;;;17.36;52.25
26436;BME280;15351;52.408;16.826;2024-02-26T12:02:37;99877.89;;;17.27;52.22
26436;BME280;15351;52.408;16.826;2024-02-26T12:04:59;99873.15;;;17.20;52.34
26436;BME280;15351;52.408;16.826;2024-02-26T12:07:26;99877.89;;;17.20;52.71
26436;BME280;15351;52.408;16.826;2024-02-26T12:09:53;99875.52;;;17.19;52.83
26436;BME280;15351;52.408;16.826;2024-02-26T12:12:39;99874.09;;;17.16;52.96
26436;BME280;15351;52.408;16.826;2024-02-26T12:15:06;99876.13;;;17.15;53.09
26436;BME280;15351;52.408;16.826;2024-02-26T12:17:35;99875.37;;;17.17;52.98
26436;BME280;15351;52.408;16.826;2024-02-26T12:20:11;99870.73;;;17.17;52.83
26436;BME280;15351;52.408;16.826;2024-02-26T12:22:39;99872.73;;;17.17;53.03
26436;BME280;15351;52.408;16.826;2024-02-26T12:25:10;99876.19;;;17.19;53.08
26436;BME280;15351;52.408;16.826;2024-02-26T12:27:36;99877.65;;;17.19;52.80
26436;BME280;15351;52.408;16.826;2024-02-26T12:30:03;99875.27;;;17.13;52.64
26436;BME280;15351;52.408;16.826;2024-02-26T12:32:31;99876.95;;;17.07;52.93
26436;BME280;15351;52.408;16.826;2024-02-26T12:34:58;99879.20;;;17.08;53.00
26436;BME280;15351;52.408;16.826;2024-02-26T12:37:27;99883.34;;;17.06;52.75
26436;BME280;15351;52.408;16.826;2024-02-26T12:39:55;99878.53;;;16.99;53.04
26436;BME280;15351;52.408;16.826;2024-02-26T12:42:21;99880.81;;;16.88;53.08
26436;BME280;15351;52.408;16.826;2024-02-26T12:44:49;99882.24;;;16.78;52.97
26436;BME280;15351;52.408;16.826;2024-02-26T12:47:16;99879.83;;;16.72;53.09
26436;BME280;15351;52.408;16.826;2024-02-26T12:49:57;99881.85;;;16.65;53.61
26436;BME280;15351;52.408;16.826;2024-02-26T12:52:24;99881.55;;;16.58;53.88
26436;BME280;15351;52.408;16.826;2024-02-26T12:54:51;99877.72;;;16.55;54.00
26436;BME280;15351;52.408;16.826;2024-02-26T12:57:18;99877.09;;;16.49;54.14
26436;BME280;15351;52.408;16.826;2024-02-26T12:59:45;99880.93;;;16.43;53.96
26436;BME280;15351;52.408;16.826;2024-02-26T13:02:12;99877.56;;;16.35;54.05
26436;BME280;15351;52.408;16.826;2024-02-26T13:04:39;99878.02;;;16.29;54.03
26436;BME280;15351;52.408;16.826;2024-02-26T13:07:06;99879.83;;;16.22;54.44
26436;BME280;15351;52.408;16.826;2024-02-26T13:09:33;99883.22;;;16.16;54.52
26436;BME280;15351;52.408;16.826;2024-02-26T13:12:04;99887.94;;;16.13;54.81
26436;BME280;15351;52.408;16.826;2024-02-26T13:14:31;99889.04;;;16.10;54.77